Time;durP1;ratioP1;P1;durP2;ratioP2;P2;SDS_P1;SDS_P2;PMS_P1;PMS_P2;Temp;Humidity;BMP_temperature;BMP_pressure;BME280_temperature;BME280_humidity;BME280_pressure;Samples;Min_cycle;Max_cycle;Signal;HPM_P1;HPM_P2
2021/10/02 00:01:41;;;;;;;20.60;9.90;;;;;;;6.01;100.00;101513.21;1733702;82;21041;-86
2021/10/02 00:45:23;;;;;;;21.17;9.40;;;;;;;5.94;100.00;101482.34;1820153;79;20991;-84
2021/10/02 00:47:53;;;;;;;21.60;9.37;;;;;;;5.90;100.00;101479.86;1819372;79;21524;-85
2021/10/02 00:50:21;;;;;;;22.37;9.87;;;;;;;5.89;100.00;101482.16;1819809;79;21018;-84
2021/10/02 00:52:48;;;;;;;23.13;10.03;;;;;;;5.87;100.00;101480.06;1819631;79;21009;-75
2021/10/02 00:55:15;;;;;;;22.20;10.27;;;;;;;5.85;100.00;101483.34;1819062;79;21065;-75
2021/10/02 00:57:43;;;;;;;21.67;10.37;;;;;;;5.82;100.00;101489.41;1819182;79;21010;-75
2021/10/02 01:00:12;;;;;;;23.67;10.30;;;;;;;5.79;100.00;101486.47;1818904;79;20983;-76
2021/10/02 01:03:11;;;;;;;24.63;10.23;;;;;;;5.75;100.00;101485.42;1818964;79;21022;-75
2021/10/02 01:05:59;;;;;;;21.20;10.23;;;;;;;5.70;100.00;101485.27;1817599;79;21000;-77
2021/10/02 01:08:40;;;;;;;22.20;10.30;;;;;;;5.66;100.00;101479.70;1810241;79;21040;-76
2021/10/02 01:11:37;;;;;;;22.73;9.97;;;;;;;5.64;100.00;101478.10;1810263;79;21001;-76
2021/10/02 01:14:29;;;;;;;20.40;10.03;;;;;;;5.62;100.00;101482.23;1813576;79;21020;-76
2021/10/02 01:17:05;;;;;;;21.33;10.33;;;;;;;5.61;100.00;101478.30;1785732;77;21022;-75
2021/10/02 01:20:00;;;;;;;22.60;10.23;;;;;;;5.58;100.00;101481.19;1785916;80;21066;-74
2021/10/02 01:22:52;;;;;;;20.73;9.57;;;;;;;5.54;100.00;101481.88;1746859;82;21144;-76
2021/10/02 01:25:48;;;;;;;21.20;10.30;;;;;;;5.50;100.00;101487.08;1786126;80;21078;-76
2021/10/02 01:28:18;;;;;;;25.30;11.50;;;;;;;5.43;100.00;101479.06;1785919;80;21054;-76
2021/10/02 01:36:38;;;;;;;23.00;10.73;;;;;;;5.28;100.00;101490.34;1786081;80;21046;-76
2021/10/02 01:47:21;;;;;;;19.17;9.77;;;;;;;5.14;100.00;101492.59;1783923;80;20966;-76
2021/10/02 01:49:55;;;;;;;20.63;10.17;;;;;;;5.09;100.00;101492.88;1783917;80;20974;-76
2021/10/02 01:52:28;;;;;;;20.57;9.37;;;;;;;5.04;100.00;101492.80;1783550;80;20997;-75
2021/10/02 01:54:56;;;;;;;20.60;10.10;;;;;;;4.99;100.00;101490.89;1719846;83;21046;-76
2021/10/02 01:57:27;;;;;;;19.67;9.60;;;;;;;4.95;100.00;101493.77;1684149;85;21079;-76
2021/10/02 01:59:57;;;;;;;20.53;9.77;;;;;;;4.92;100.00;101491.30;1709391;84;21084;-76
2021/10/02 02:02:28;;;;;;;20.60;8.90;;;;;;;4.91;100.00;101491.41;1684142;85;21052;-76
2021/10/02 02:04:55;;;;;;;20.53;9.13;;;;;;;4.91;100.00;101492.74;1647829;87;21084;-75
2021/10/02 02:07:23;;;;;;;19.90;9.60;;;;;;;4.91;100.00;101494.94;1642815;87;20990;-75
2021/10/02 02:09:51;;;;;;;22.47;10.13;;;;;;;4.88;100.00;101493.78;1643188;87;21113;-76
2021/10/02 02:12:19;;;;;;;17.83;8.53;;;;;;;4.86;100.00;101497.53;1675987;85;21141;-75
2021/10/02 02:14:49;;;;;;;20.47;9.97;;;;;;;4.84;100.00;101502.14;1702194;84;21535;-76
2021/10/02 02:17:16;;;;;;;21.87;9.27;;;;;;;4.81;100.00;101502.33;1681045;84;21066;-76
2021/10/02 02:19:45;;;;;;;18.93;9.70;;;;;;;4.76;100.00;101501.27;1704369;84;21069;-76
2021/10/02 02:22:12;;;;;;;19.60;9.30;;;;;;;4.72;100.00;101503.77;1704579;84;21029;-85
2021/10/02 02:24:40;;;;;;;22.07;9.77;;;;;;;4.67;100.00;101500.03;1704776;84;21045;-84
2021/10/02 02:27:06;;;;;;;20.33;9.87;;;;;;;4.65;100.00;101503.29;1705208;84;21033;-85
2021/10/02 02:29:34;;;;;;;19.77;9.93;;;;;;;4.60;100.00;101504.55;1704753;84;21088;-83
2021/10/02 02:32:01;;;;;;;19.40;9.73;;;;;;;4.57;100.00;101510.97;1705127;84;21010;-85
2021/10/02 02:34:28;;;;;;;19.50;9.60;;;;;;;4.53;100.00;101509.42;1704998;84;21002;-86
2021/10/02 02:36:57;;;;;;;20.90;9.63;;;;;;;4.49;100.00;101514.11;1704004;84;20998;-84
2021/10/02 02:39:24;;;;;;;21.67;10.07;;;;;;;4.43;100.00;101510.48;1630191;88;21106;-84
2021/10/02 02:41:51;;;;;;;21.33;10.23;;;;;;;4.40;100.00;101515.17;1621886;88;21087;-85
2021/10/02 02:44:18;;;;;;;18.57;9.47;;;;;;;4.37;100.00;101516.20;1622193;88;21086;-83
2021/10/02 02:46:55;;;;;;;19.43;9.43;;;;;;;4.34;100.00;101521.29;1622169;88;21063;-84
2021/10/02 02:50:02;;;;;;;24.30;9.80;;;;;;;4.32;100.00;101516.52;1621856;88;21023;-85
2021/10/02 02:52:52;;;;;;;20.70;9.33;;;;;;;4.29;100.00;101516.69;1621076;88;21196;-84
2021/10/02 02:55:25;;;;;;;21.30;9.83;;;;;;;4.26;100.00;101520.89;1621889;88;21087;-76
2021/10/02 02:58:03;;;;;;;18.77;9.43;;;;;;;4.22;100.00;101518.52;1625200;88;22475;-76
2021/10/02 03:00:30;;;;;;;19.73;9.10;;;;;;;4.18;100.00;101518.69;1554675;92;21086;-76
2021/10/02 03:03:05;;;;;;;19.93;9.50;;;;;;;4.16;100.00;101519.27;1553819;92;21201;-76
2021/10/02 03:05:32;;;;;;;19.30;8.80;;;;;;;4.15;100.00;101515.34;1549612;92;21095;-76
2021/10/02 03:08:08;;;;;;;18.93;9.37;;;;;;;4.15;100.00;101514.86;1543858;92;21108;-76
2021/10/02 03:10:36;;;;;;;20.73;9.67;;;;;;;4.15;100.00;101510.84;1569636;91;21611;-76
2021/10/02 03:13:07;;;;;;;19.93;9.77;;;;;;;4.12;100.00;101512.36;1569923;91;21133;-76
2021/10/02 03:15:35;;;;;;;19.53;9.73;;;;;;;4.11;100.00;101517.83;1569958;91;21057;-76
2021/10/02 03:18:02;;;;;;;20.27;9.90;;;;;;;4.08;100.00;101516.18;1569662;91;21144;-76
2021/10/02 03:20:29;;;;;;;18.90;9.37;;;;;;;4.06;100.00;101521.27;1570009;91;21068;-75
2021/10/02 03:22:58;;;;;;;20.00;9.90;;;;;;;4.04;100.00;101517.33;1570000;91;21084;-76
2021/10/02 03:25:28;;;;;;;18.63;8.93;;;;;;;4.05;100.00;101516.84;1569813;91;21069;-76
2021/10/02 03:27:55;;;;;;;18.70;9.63;;;;;;;4.07;100.00;101518.50;1570045;91;21625;-75
2021/10/02 03:30:23;;;;;;;19.67;8.97;;;;;;;4.10;100.00;101518.77;1570090;91;21041;-75
2021/10/02 03:32:52;;;;;;;19.23;9.73;;;;;;;4.11;100.00;101520.02;1569761;91;21128;-75
2021/10/02 03:35:20;;;;;;;22.57;9.93;;;;;;;4.12;100.00;101524.41;1569969;91;21560;-76
2021/10/02 03:37:49;;;;;;;18.73;8.83;;;;;;;4.11;100.00;101521.36;1558094;91;21613;-76
2021/10/02 03:40:18;;;;;;;17.20;8.33;;;;;;;4.11;100.00;101521.84;1553301;91;21662;-76
2021/10/02 03:42:49;;;;;;;19.23;8.40;;;;;;;4.11;100.00;101522.70;1536435;92;21102;-75
2021/10/02 03:45:18;;;;;;;17.87;8.20;;;;;;;4.12;100.00;101516.86;1567341;92;21130;-76
2021/10/02 03:47:44;;;;;;;18.67;8.10;;;;;;;4.13;100.00;101517.25;1567148;91;21493;-76
2021/10/02 03:50:12;;;;;;;19.83;8.77;;;;;;;4.14;100.00;101515.83;1567052;92;21098;-76
2021/10/02 03:52:39;;;;;;;19.23;8.70;;;;;;;4.14;100.00;101509.59;1567105;92;21616;-76
2021/10/02 03:55:07;;;;;;;18.60;8.63;;;;;;;4.14;100.00;101517.63;1567383;92;21532;-75
2021/10/02 03:57:34;;;;;;;19.67;8.50;;;;;;;4.12;100.00;101515.03;1595390;89;21140;-76
2021/10/02 04:00:01;;;;;;;16.90;7.53;;;;;;;4.12;100.00;101515.03;1571204;91;21123;-75
2021/10/02 04:02:28;;;;;;;19.50;8.37;;;;;;;4.16;100.00;101519.72;1636620;86;21465;-75
2021/10/02 04:04:54;;;;;;;17.10;8.17;;;;;;;4.18;100.00;101524.05;1664127;86;21034;-76
2021/10/02 04:07:22;;;;;;;16.40;8.13;;;;;;;4.18;100.00;101521.37;1671535;85;21089;-75
2021/10/02 04:09:49;;;;;;;18.17;8.13;;;;;;;4.19;100.00;101525.75;1687909;85;21527;-75
2021/10/02 04:12:17;;;;;;;18.03;8.10;;;;;;;4.18;100.00;101521.85;1687593;83;21535;-75
2021/10/02 04:14:43;;;;;;;17.27;7.70;;;;;;;4.19;100.00;101527.58;1687649;85;21101;-75
2021/10/02 04:17:12;;;;;;;20.87;8.00;;;;;;;4.22;100.00;101522.53;1687855;85;21062;-75
2021/10/02 04:19:41;;;;;;;19.37;8.03;;;;;;;4.25;100.00;101523.20;1687867;85;21054;-76
2021/10/02 04:22:10;;;;;;;15.93;7.50;;;;;;;4.29;100.00;101529.23;1688006;85;21150;-76
2021/10/02 04:24:37;;;;;;;17.30;8.37;;;;;;;4.31;100.00;101523.30;1687848;85;21030;-75
2021/10/02 04:27:04;;;;;;;14.90;7.80;;;;;;;4.32;100.00;101525.88;1688078;85;21057;-74
2021/10/02 04:29:32;;;;;;;18.27;7.97;;;;;;;4.35;100.00;101524.82;1687675;85;21085;-75
2021/10/02 04:31:59;;;;;;;18.07;7.47;;;;;;;4.38;100.00;101525.48;1688170;85;21539;-75
2021/10/02 04:34:28;;;;;;;15.33;7.77;;;;;;;4.42;100.00;101525.31;1687927;85;21087;-75
2021/10/02 04:36:55;;;;;;;20.13;7.80;;;;;;;4.45;100.00;101522.45;1689138;85;21018;-75
2021/10/02 04:39:23;;;;;;;20.47;7.83;;;;;;;4.48;100.00;101519.09;1748209;79;21500;-75
2021/10/02 04:41:49;;;;;;;16.60;8.07;;;;;;;4.50;100.00;101518.52;1813590;79;21014;-75
2021/10/02 04:44:16;;;;;;;16.63;8.03;;;;;;;4.54;100.00;101517.36;1813002;79;21007;-75
2021/10/02 04:46:43;;;;;;;14.07;7.30;;;;;;;4.60;100.00;101525.98;1813189;79;21552;-76
2021/10/02 04:49:10;;;;;;;16.47;8.17;;;;;;;4.65;100.00;101517.17;1813578;79;21011;-76
2021/10/02 04:51:37;;;;;;;18.20;8.57;;;;;;;4.70;100.00;101521.77;1813121;79;21500;-76
2021/10/02 04:54:04;;;;;;;23.50;9.20;;;;;;;4.75;100.00;101512.47;1809188;79;20967;-73
2021/10/02 04:56:32;;;;;;;17.73;8.50;;;;;;;4.82;100.00;101516.97;1806503;79;21034;-75
2021/10/02 04:58:59;;;;;;;19.63;8.47;;;;;;;4.90;100.00;101522.69;1813645;79;21022;-74
2021/10/02 05:01:26;;;;;;;24.00;13.67;;;;;;;4.99;100.00;101521.72;1812945;79;21006;-74
2021/10/02 05:03:53;;;;;;;21.43;8.10;;;;;;;5.08;100.00;101514.42;1813339;79;21058;-77
2021/10/02 05:06:20;;;;;;;20.13;8.90;;;;;;;5.19;100.00;101515.06;1803591;79;21041;-75
2021/10/02 05:08:48;;;;;;;17.73;8.40;;;;;;;5.28;100.00;101515.83;1800290;79;20979;-75
2021/10/02 05:11:15;;;;;;;19.30;9.13;;;;;;;5.35;100.00;101519.82;1802126;79;21018;-74
2021/10/02 05:13:42;;;;;;;58.57;38.97;;;;;;;5.43;100.00;101509.42;1807628;79;20983;-76
2021/10/02 05:16:09;;;;;;;32.07;18.40;;;;;;;5.50;100.00;101516.59;1801517;79;21460;-76
2021/10/02 05:18:35;;;;;;;19.03;8.40;;;;;;;5.57;100.00;101515.22;1802948;79;20983;-77
2021/10/02 05:21:03;;;;;;;22.53;8.80;;;;;;;5.66;100.00;101520.45;1797508;79;21010;-78
2021/10/02 05:23:30;;;;;;;26.17;8.63;;;;;;;5.72;100.00;101518.72;1790535;79;21034;-73
2021/10/02 05:25:56;;;;;;;18.90;7.93;;;;;;;5.78;100.00;101515.60;1801765;79;21484;-74
2021/10/02 05:28:24;;;;;;;20.23;8.30;;;;;;;5.84;100.00;101510.29;1813222;79;20998;-75
2021/10/02 05:30:51;;;;;;;19.67;8.40;;;;;;;5.88;100.00;101511.83;1812807;79;21062;-76
2021/10/02 05:33:18;;;;;;;19.33;8.87;;;;;;;5.94;100.00;101514.56;1813666;79;21496;-76
2021/10/02 05:35:45;;;;;;;19.40;9.50;;;;;;;6.00;100.00;101511.02;1813475;79;21007;-75
2021/10/02 05:38:12;;;;;;;18.70;9.13;;;;;;;6.07;100.00;101506.06;1790476;79;20995;-74
2021/10/02 05:40:39;;;;;;;16.50;8.70;;;;;;;6.15;100.00;101505.55;1789723;80;21057;-75
2021/10/02 05:43:06;;;;;;;21.83;9.10;;;;;;;6.19;100.00;101505.21;1795227;78;21073;-75
2021/10/02 05:45:32;;;;;;;34.83;11.73;;;;;;;6.25;100.00;101511.52;1795575;79;21046;-74
2021/10/02 05:47:59;;;;;;;22.77;10.50;;;;;;;6.34;100.00;101503.75;1795692;79;21503;-74
2021/10/02 05:50:26;;;;;;;20.07;8.30;;;;;;;6.44;100.00;101505.69;1796489;79;21033;-75
2021/10/02 05:52:52;;;;;;;36.97;11.63;;;;;;;6.56;100.00;101501.77;1796339;79;21033;-74
2021/10/02 05:55:20;;;;;;;50.30;14.53;;;;;;;6.70;100.00;101504.33;1807300;79;21028;-74
2021/10/02 05:57:46;;;;;;;24.47;9.87;;;;;;;6.84;100.00;101505.53;1809268;78;20998;-75
2021/10/02 06:00:13;;;;;;;37.43;12.67;;;;;;;7.00;100.00;101501.73;1806872;79;20983;-74
2021/10/02 06:02:40;;;;;;;20.27;9.47;;;;;;;7.10;100.00;101502.79;1806276;79;21003;-74
2021/10/02 06:05:07;;;;;;;30.27;10.03;;;;;;;7.21;100.00;101500.65;1796971;79;21001;-71
2021/10/02 06:07:39;;;;;;;23.90;9.60;;;;;;;7.36;100.00;101508.05;1805864;79;21035;-73
2021/10/02 06:10:07;;;;;;;21.57;8.93;;;;;;;7.50;100.00;101498.45;1800957;79;21046;-74
2021/10/02 06:12:35;;;;;;;20.37;8.53;;;;;;;7.68;100.00;101498.05;1801628;79;21034;-74
2021/10/02 06:15:01;;;;;;;37.17;11.70;;;;;;;7.84;100.00;101491.84;1786008;77;21081;-74
2021/10/02 06:17:28;;;;;;;49.03;12.57;;;;;;;8.02;100.00;101489.59;1754977;80;21005;-73
2021/10/02 06:19:57;;;;;;;39.77;11.30;;;;;;;8.22;100.00;101492.57;1756907;81;21524;-74
2021/10/02 06:22:25;;;;;;;22.90;9.73;;;;;;;8.44;100.00;101488.56;1755129;81;21024;-73
2021/10/02 06:24:52;;;;;;;97.40;19.37;;;;;;;8.70;100.00;101493.22;1745598;81;20994;-74
2021/10/02 06:27:19;;;;;;;22.37;9.20;;;;;;;8.94;100.00;101494.91;1753361;81;21009;-74
2021/10/02 06:29:46;;;;;;;27.20;9.33;;;;;;;9.13;100.00;101487.02;1749965;81;21107;-75
2021/10/02 06:32:13;;;;;;;18.10;8.67;;;;;;;9.29;100.00;101485.26;1745038;81;21001;-74
2021/10/02 06:34:40;;;;;;;46.07;12.57;;;;;;;9.54;100.00;101484.56;1759544;80;20993;-75
2021/10/02 06:37:07;;;;;;;84.87;17.70;;;;;;;9.81;100.00;101477.80;1732780;82;21041;-75
2021/10/02 06:39:34;;;;;;;53.67;13.23;;;;;;;10.06;100.00;101472.02;1743811;81;21025;-74
2021/10/02 06:42:02;;;;;;;40.60;11.00;;;;;;;10.31;100.00;101474.45;1761626;81;21096;-73
2021/10/02 06:44:30;;;;;;;64.40;14.10;;;;;;;10.52;100.00;101469.88;1759444;81;21060;-75
2021/10/02 06:46:57;;;;;;;45.93;9.70;;;;;;;10.82;100.00;101469.49;1751061;80;21073;-74
2021/10/02 06:49:27;;;;;;;28.57;7.80;;;;;;;11.13;100.00;101466.70;1745773;81;21098;-73
2021/10/02 06:51:52;;;;;;;23.65;8.38;;;;;;;11.45;100.00;101460.19;1742278;81;21061;-73
2021/10/02 06:54:19;;;;;;;30.65;8.70;;;;;;;11.70;100.00;101452.81;1736994;81;21517;-73
2021/10/02 06:56:47;;;;;;;45.28;11.03;;;;;;;11.87;100.00;101454.46;1732983;81;21010;-74
2021/10/02 06:59:14;;;;;;;21.95;7.10;;;;;;;12.01;100.00;101451.33;1760482;81;21009;-71
2021/10/02 07:01:42;;;;;;;19.57;6.75;;;;;;;12.21;100.00;101453.98;1752894;80;21043;-74
2021/10/02 07:04:09;;;;;;;19.92;6.67;;;;;;;12.42;100.00;101449.70;1753175;81;20997;-74
2021/10/02 07:06:37;;;;;;;28.65;9.05;;;;;;;12.57;100.00;101451.42;1754338;81;21021;-74
2021/10/02 07:09:04;;;;;;;51.45;13.25;;;;;;;12.84;100.00;101442.45;1752557;81;20997;-75
2021/10/02 07:11:32;;;;;;;77.80;17.17;;;;;;;13.11;100.00;101438.83;1756097;81;20977;-73
2021/10/02 07:13:59;;;;;;;48.48;22.25;;;;;;;13.37;100.00;101440.80;1763403;81;21550;-73
2021/10/02 07:16:29;;;;;;;79.12;18.02;;;;;;;13.54;100.00;101436.39;1722695;81;21561;-74
2021/10/02 07:18:56;;;;;;;27.48;10.82;;;;;;;13.58;100.00;101430.50;1725629;81;21033;-72
2021/10/02 07:21:25;;;;;;;66.12;20.90;;;;;;;13.57;100.00;101436.92;1709165;83;21061;-73
2021/10/02 07:23:53;;;;;;;47.33;13.10;;;;;;;13.58;100.00;101427.77;1722598;82;22161;-74
2021/10/02 07:26:20;;;;;;;34.73;9.80;;;;;;;13.67;100.00;101428.19;1714370;83;21033;-74
2021/10/02 07:28:47;;;;;;;50.33;13.35;;;;;;;13.78;99.88;101426.23;1697940;84;21064;-73
2021/10/02 07:31:14;;;;;;;47.10;12.18;;;;;;;13.98;100.00;101424.16;1698335;83;21077;-72
2021/10/02 07:33:43;;;;;;;70.70;18.45;;;;;;;14.21;99.49;101416.31;1712451;83;21025;-75
2021/10/02 07:36:11;;;;;;;42.55;11.35;;;;;;;14.38;94.40;101415.91;1703024;83;21024;-72
2021/10/02 07:38:38;;;;;;;17.23;4.87;;;;;;;14.50;89.26;101414.59;1714276;81;21017;-74
2021/10/02 07:41:05;;;;;;;15.43;5.85;;;;;;;14.65;84.27;101415.37;1720457;83;21006;-76
2021/10/02 07:43:33;;;;;;;34.95;10.30;;;;;;;14.71;78.97;101410.61;1718648;83;21079;-73
2021/10/02 07:46:01;;;;;;;52.40;12.58;;;;;;;14.80;76.17;101411.84;1690657;84;20989;-74
2021/10/02 07:48:27;;;;;;;56.60;12.25;;;;;;;14.88;70.80;101417.82;1716529;83;21125;-74
2021/10/02 07:50:56;;;;;;;45.48;11.80;;;;;;;14.95;69.23;101407.96;1717939;83;21042;-73
2021/10/02 07:53:23;;;;;;;42.48;11.65;;;;;;;15.02;66.96;101401.87;1727360;83;21038;-72
2021/10/02 07:55:51;;;;;;;18.87;5.55;;;;;;;15.33;68.37;101400.70;1694030;84;21494;-73
2021/10/02 07:58:22;;;;;;;44.58;11.55;;;;;;;15.33;68.37;101400.70;1695610;84;20978;-72
2021/10/02 08:00:56;;;;;;;37.58;8.85;;;;;;;15.51;67.45;101410.07;1669541;85;21041;-74
2021/10/02 08:03:23;;;;;;;62.17;14.35;;;;;;;15.65;63.99;101408.05;1703093;83;21094;-75
2021/10/02 08:05:51;;;;;;;45.23;12.88;;;;;;;15.73;57.59;101399.00;1693838;81;21013;-74
2021/10/02 08:08:19;;;;;;;51.35;10.93;;;;;;;15.78;60.71;101403.47;1693741;84;21039;-90
2021/10/02 08:10:48;;;;;;;25.32;6.75;;;;;;;15.89;56.47;101396.28;1669227;85;21085;-87
2021/10/02 08:13:15;;;;;;;23.65;7.33;;;;;;;16.02;53.94;101397.62;1709380;84;20997;-83
2021/10/02 08:15:51;;;;;;;43.83;11.48;;;;;;;16.02;52.17;101387.55;1704926;81;21078;-83
2021/10/02 08:18:18;;;;;;;26.33;9.30;;;;;;;16.06;52.73;101400.33;1720894;83;21018;-85
2021/10/02 08:20:47;;;;;;;48.15;12.10;;;;;;;16.11;52.57;101393.35;1721682;83;21046;-82
2021/10/02 08:23:17;;;;;;;61.40;15.10;;;;;;;16.25;55.26;101391.75;1721611;83;21018;-84
2021/10/02 08:25:48;;;;;;;41.15;9.98;;;;;;;16.49;56.54;101387.25;1721876;83;21446;-79
2021/10/02 08:28:15;;;;;;;56.18;11.83;;;;;;;16.67;49.94;101398.75;1721928;83;21545;-82
2021/10/02 08:30:46;;;;;;;39.23;11.55;;;;;;;16.59;47.22;101389.75;1722166;83;21075;-83
2021/10/02 08:33:14;;;;;;;24.30;7.22;;;;;;;16.48;48.92;101385.04;1722197;82;21274;-82
2021/10/02 08:35:43;;;;;;;79.58;18.30;;;;;;;16.48;48.78;101378.22;1722998;83;20963;-91
2021/10/02 08:38:10;;;;;;;53.40;12.80;;;;;;;16.45;48.74;101373.59;1724239;83;21044;-86
2021/10/02 08:40:38;;;;;;;30.32;9.58;;;;;;;16.55;51.46;101377.48;1723681;83;21022;-90
2021/10/02 08:43:17;;;;;;;30.32;9.00;;;;;;;16.67;50.17;101376.91;1723542;83;21591;-88
2021/10/02 08:45:46;;;;;;;34.83;11.25;;;;;;;16.72;50.42;101367.34;1722161;83;21060;-82
2021/10/02 08:48:17;;;;;;;13.38;6.45;;;;;;;16.86;50.90;101377.53;1720430;83;21043;-82
2021/10/02 08:50:44;;;;;;;21.12;5.90;;;;;;;17.01;48.99;101368.88;1721872;83;21032;-80
2021/10/02 08:53:13;;;;;;;12.55;4.40;;;;;;;17.07;44.48;101354.51;1721399;83;20957;-82
2021/10/02 08:55:41;;;;;;;16.80;4.92;;;;;;;17.11;43.87;101359.62;1719174;83;21546;-79
2021/10/02 08:58:10;;;;;;;9.78;4.45;;;;;;;17.15;41.83;101365.89;1720854;83;21030;-80
2021/10/02 09:00:39;;;;;;;16.80;5.30;;;;;;;17.19;41.96;101363.64;1721738;83;21011;-78
2021/10/02 09:03:07;;;;;;;12.00;4.05;;;;;;;17.19;41.27;101359.53;1722038;83;21027;-76
2021/10/02 09:05:36;;;;;;;8.28;4.10;;;;;;;17.22;42.10;101354.55;1690657;83;21085;-74
2021/10/02 09:08:04;;;;;;;9.03;3.98;;;;;;;17.31;42.06;101355.34;1689538;83;21100;-74
2021/10/02 09:10:35;;;;;;;19.90;11.38;;;;;;;17.37;42.60;101350.52;1715698;83;21034;-74
2021/10/02 09:13:03;;;;;;;33.15;7.87;;;;;;;17.52;42.80;101360.13;1722249;83;21031;-73
2021/10/02 09:15:31;;;;;;;24.02;5.70;;;;;;;17.65;41.56;101346.68;1722013;83;21010;-74
2021/10/02 09:18:00;;;;;;;13.15;3.85;;;;;;;17.74;41.03;101350.68;1721757;83;21040;-73
2021/10/02 09:20:27;;;;;;;17.10;5.87;;;;;;;17.85;39.92;101351.61;1721676;83;21616;-73
2021/10/02 09:23:04;;;;;;;37.80;10.35;;;;;;;17.90;38.45;101346.95;1721120;83;21047;-74
2021/10/02 09:25:35;;;;;;;27.13;6.42;;;;;;;17.82;38.68;101348.71;1718241;83;21469;-74
2021/10/02 09:28:08;;;;;;;12.13;4.80;;;;;;;17.88;40.42;101342.20;1720693;83;21029;-74
2021/10/02 09:30:38;;;;;;;17.45;5.12;;;;;;;18.02;41.93;101342.22;1630280;87;21277;-73
2021/10/02 09:33:22;;;;;;;19.92;6.50;;;;;;;18.16;40.00;101348.70;1621655;87;21053;-73
2021/10/02 09:35:51;;;;;;;14.47;5.08;;;;;;;18.07;38.97;101342.16;1611146;88;21128;-74
2021/10/02 09:38:19;;;;;;;14.93;5.17;;;;;;;18.00;41.11;101338.80;1621740;88;21054;-74
2021/10/02 09:40:57;;;;;;;5.58;3.80;;;;;;;18.06;39.61;101335.85;1625969;88;21042;-74
2021/10/02 09:43:26;;;;;;;49.48;10.78;;;;;;;17.74;36.87;101336.51;1636547;88;21616;-74
2021/10/02 09:45:53;;;;;;;37.30;9.35;;;;;;;17.40;38.49;101329.63;1600235;89;21565;-73
2021/10/02 09:48:31;;;;;;;56.33;10.72;;;;;;;17.26;38.76;101329.07;1602274;89;21130;-74
2021/10/02 09:51:06;;;;;;;48.63;10.70;;;;;;;17.36;43.63;101325.57;1574872;90;21105;-73
2021/10/02 09:53:39;;;;;;;20.75;5.53;;;;;;;17.76;42.95;101323.98;1580716;90;21073;-73
2021/10/02 09:56:08;;;;;;;8.98;4.45;;;;;;;17.99;40.79;101328.06;1567843;90;21046;-73
2021/10/02 09:58:35;;;;;;;12.78;4.40;;;;;;;17.96;39.56;101318.86;1572322;90;21119;-72
2021/10/02 10:01:08;;;;;;;33.63;7.90;;;;;;;17.96;41.44;101316.97;1565176;90;21050;-73
2021/10/02 10:03:46;;;;;;;34.75;8.10;;;;;;;18.07;40.03;101310.69;1574166;90;21050;-74
2021/10/02 10:06:24;;;;;;;13.90;4.33;;;;;;;18.12;39.47;101314.55;1570514;90;21094;-73
2021/10/02 10:09:09;;;;;;;19.12;6.20;;;;;;;18.28;39.47;101309.92;1573701;90;21078;-74
2021/10/02 10:11:50;;;;;;;25.43;6.35;;;;;;;18.29;36.75;101299.28;1573866;90;21038;-72
2021/10/02 10:14:21;;;;;;;19.70;5.17;;;;;;;18.21;36.71;101302.98;1568471;90;21045;-74
2021/10/02 10:16:52;;;;;;;10.98;4.05;;;;;;;18.21;38.11;101304.35;1556385;91;21162;-73
2021/10/02 10:19:25;;;;;;;9.10;4.22;;;;;;;18.21;35.99;101296.98;1549106;93;21085;-72
2021/10/02 10:22:18;;;;;;;27.87;8.85;;;;;;;18.07;36.86;101295.64;1547611;90;21077;-73
2021/10/02 10:24:56;;;;;;;35.58;8.58;;;;;;;18.15;38.45;101299.62;1536210;93;21125;-71
2021/10/02 10:27:40;;;;;;;27.58;6.97;;;;;;;18.36;37.71;101294.73;1533053;92;21083;-74
2021/10/02 10:30:22;;;;;;;32.00;8.45;;;;;;;18.48;40.00;101297.30;1549094;92;21188;-72
2021/10/02 10:33:04;;;;;;;40.58;10.80;;;;;;;18.64;37.35;101295.38;1489489;95;21072;-71
2021/10/02 10:35:40;;;;;;;19.35;5.62;;;;;;;18.62;37.41;101298.31;1499968;95;21574;-72
2021/10/02 10:38:10;;;;;;;9.43;4.10;;;;;;;18.72;37.22;101290.63;1531626;94;21661;-72
2021/10/02 10:40:38;;;;;;;40.23;6.92;;;;;;;18.93;38.24;101282.97;1505321;94;21112;-72
2021/10/02 10:43:05;;;;;;;13.53;3.98;;;;;;;19.08;37.03;101271.09;1447150;98;21161;-73
2021/10/02 10:45:34;;;;;;;21.40;5.97;;;;;;;18.98;36.01;101279.62;1443922;98;22109;-72
2021/10/02 10:48:00;;;;;;;49.50;10.55;;;;;;;18.77;36.02;101282.68;1462347;97;21143;-72
2021/10/02 10:50:29;;;;;;;39.53;9.00;;;;;;;18.63;36.86;101280.84;1504020;95;21090;-72
2021/10/02 10:53:00;;;;;;;34.10;7.53;;;;;;;18.64;37.78;101285.27;1502208;95;21090;-72
2021/10/02 10:55:27;;;;;;;69.67;12.75;;;;;;;18.75;38.06;101277.92;1503316;95;21098;-73
2021/10/02 10:57:58;;;;;;;9.78;4.10;;;;;;;18.85;36.76;101276.24;1502870;95;21102;-71
2021/10/02 11:00:37;;;;;;;11.05;3.80;;;;;;;18.81;35.62;101268.06;1462896;95;21079;-70
2021/10/02 11:03:07;;;;;;;7.62;3.70;;;;;;;18.66;35.27;101269.51;1438557;97;21184;-70
2021/10/02 11:05:41;;;;;;;9.63;3.55;;;;;;;18.35;35.48;101258.30;1414495;101;21124;-74
2021/10/02 11:08:11;;;;;;;16.17;4.97;;;;;;;18.10;37.00;101256.95;1459749;98;21098;-74
2021/10/02 11:10:50;;;;;;;17.35;4.90;;;;;;;18.00;37.63;101264.91;1434966;97;21187;-74
2021/10/02 11:13:29;;;;;;;39.00;7.08;;;;;;;18.03;39.61;101262.33;1437555;100;21190;-74
2021/10/02 11:15:57;;;;;;;37.30;8.43;;;;;;;18.28;39.10;101256.00;1452724;97;21192;-73
2021/10/02 11:18:46;;;;;;;57.43;12.50;;;;;;;18.34;37.88;101257.98;1445676;99;21184;-69
2021/10/02 11:21:17;;;;;;;47.40;12.37;;;;;;;18.42;38.39;101251.53;1442324;97;21102;-72
2021/10/02 11:24:07;;;;;;;11.90;4.70;;;;;;;18.38;36.60;101252.98;1447147;99;21108;-71
2021/10/02 11:26:43;;;;;;;11.90;4.80;;;;;;;18.17;37.42;101263.35;1445507;99;21087;-72
2021/10/02 11:29:30;;;;;;;46.45;12.05;;;;;;;18.09;36.84;101253.34;1480412;94;21074;-72
2021/10/02 11:32:25;;;;;;;41.42;11.68;;;;;;;17.88;37.05;101251.91;1507047;94;21132;-75
2021/10/02 11:35:22;;;;;;;34.33;8.35;;;;;;;17.87;38.57;101248.86;1510394;93;21090;-75
2021/10/02 11:38:07;;;;;;;88.00;27.13;;;;;;;18.05;40.11;101252.56;1523100;93;21714;-72
2021/10/02 11:40:45;;;;;;;74.05;25.50;;;;;;;18.30;39.97;101252.55;1470203;98;21101;-73
2021/10/02 11:43:22;;;;;;;101.97;26.42;;;;;;;18.48;38.12;101249.38;1479092;96;21132;-73
2021/10/02 11:45:58;;;;;;;42.38;12.15;;;;;;;18.55;38.08;101244.81;1454155;98;21158;-73
2021/10/02 11:48:36;;;;;;;37.48;10.28;;;;;;;18.55;38.80;101240.70;1442706;98;21113;-72
2021/10/02 11:51:17;;;;;;;35.38;9.48;;;;;;;18.59;37.08;101240.67;1460222;98;21077;-73
2021/10/02 11:54:11;;;;;;;34.43;7.62;;;;;;;18.63;38.11;101242.99;1464749;97;21114;-73
2021/10/02 11:56:39;;;;;;;14.47;4.37;;;;;;;18.67;38.51;101238.31;1530084;93;21123;-73
2021/10/02 11:59:06;;;;;;;19.67;5.97;;;;;;;18.71;39.29;101233.29;1540861;93;21044;-73
2021/10/02 12:01:42;;;;;;;28.70;6.03;;;;;;;18.70;37.54;101235.19;1529023;93;21078;-71
2021/10/02 12:04:13;;;;;;;30.37;6.62;;;;;;;18.53;36.63;101237.32;1528941;93;21071;-73
2021/10/02 12:06:44;;;;;;;14.60;4.58;;;;;;;18.47;38.80;101228.53;1495720;95;21140;-73
2021/10/02 12:09:14;;;;;;;6.53;3.72;;;;;;;18.57;39.11;101224.09;1487552;96;21183;-73
2021/10/02 12:11:48;;;;;;;16.25;4.65;;;;;;;18.62;39.62;101228.99;1487483;96;21151;-72
2021/10/02 12:14:20;;;;;;;58.63;10.82;;;;;;;18.63;39.08;101226.06;1420814;101;21648;-73
2021/10/02 12:16:55;;;;;;;46.02;9.70;;;;;;;18.62;39.25;101223.52;1419885;99;21650;-73
2021/10/02 12:19:22;;;;;;;19.98;5.53;;;;;;;18.62;38.39;101225.72;1391838;103;21145;-73
2021/10/02 12:22:03;;;;;;;22.90;4.80;;;;;;;18.50;37.24;101222.67;1391296;101;21804;-72
2021/10/02 12:24:34;;;;;;;39.92;8.10;;;;;;;18.38;38.41;101219.59;1372896;105;21122;-73
2021/10/02 12:27:14;;;;;;;13.50;4.78;;;;;;;18.37;39.75;101221.14;1372714;105;21243;-71